Time;durP1;ratioP1;P1;durP2;ratioP2;P2;SDS_P1;SDS_P2;PMS_P1;PMS_P2;Temp;Humidity;BMP_temperature;BMP_pressure;BME280_temperature;BME280_humidity;BME280_pressure;Samples;Min_cycle;Max_cycle;Signal;HPM_P1;HPM_P2
2023/10/08 00:00:50;;;;;;;8.27;3.40;;;21.10;77.50;;;;;;6308347;22;20023;-61
2023/10/08 00:03:20;;;;;;;9.85;3.70;;;21.10;77.50;;;;;;6306889;22;20439;-61
2023/10/08 00:05:46;;;;;;;7.63;3.25;;;21.00;77.50;;;;;;6280874;22;20015;-61
2023/10/08 00:08:14;;;;;;;8.63;3.22;;;21.10;77.50;;;;;;6307431;22;20015;-61
2023/10/08 00:10:41;;;;;;;8.55;3.72;;;21.10;77.50;;;;;;6279170;22;20011;-60
2023/10/08 00:13:09;;;;;;;7.60;3.63;;;21.00;77.50;;;;;;6280974;22;20027;-61
2023/10/08 00:15:36;;;;;;;8.90;3.58;;;21.00;77.40;;;;;;6280921;22;20101;-61
2023/10/08 00:18:04;;;;;;;8.90;3.28;;;21.00;77.40;;;;;;6279954;22;20120;-61
2023/10/08 00:20:42;;;;;;;7.13;3.60;;;21.00;77.30;;;;;;6280328;22;20045;-61
2023/10/08 00:23:09;;;;;;;6.38;2.88;;;21.00;77.30;;;;;;6280879;22;20018;-61
2023/10/08 00:25:40;;;;;;;7.40;3.17;;;21.00;77.40;;;;;;6279664;22;20015;-61
2023/10/08 00:28:10;;;;;;;5.75;2.85;;;21.00;77.30;;;;;;6308533;22;20015;-61
2023/10/08 00:30:38;;;;;;;7.30;3.15;;;21.00;77.90;;;;;;6308465;22;20019;-61
2023/10/08 00:33:04;;;;;;;9.00;3.40;;;21.00;77.30;;;;;;6279941;22;20012;-61
2023/10/08 00:35:30;;;;;;;6.65;3.08;;;21.00;77.30;;;;;;6280444;22;20030;-61
2023/10/08 00:38:00;;;;;;;6.22;2.90;;;21.00;77.30;;;;;;6308022;22;20015;-61
2023/10/08 00:40:36;;;;;;;7.45;2.88;;;21.00;77.30;;;;;;6280212;22;20031;-61
2023/10/08 00:43:10;;;;;;;6.90;3.03;;;21.00;77.30;;;;;;6280638;22;20027;-61
2023/10/08 00:45:43;;;;;;;6.93;2.53;;;21.00;77.30;;;;;;6279298;22;20015;-61
2023/10/08 00:48:16;;;;;;;5.97;2.80;;;21.00;77.30;;;;;;6280562;22;20019;-61
2023/10/08 00:50:43;;;;;;;8.63;2.88;;;21.00;77.30;;;;;;6281630;22;20506;-61
2023/10/08 00:53:21;;;;;;;7.20;2.88;;;21.00;77.30;;;;;;6254368;22;20022;-61
2023/10/08 00:55:59;;;;;;;7.22;2.55;;;21.00;77.30;;;;;;6282505;22;20027;-61
2023/10/08 00:58:26;;;;;;;5.47;2.38;;;20.90;77.10;;;;;;6282949;22;20019;-61
2023/10/08 01:00:59;;;;;;;5.22;2.35;;;20.90;77.10;;;;;;6279290;22;20026;-61
2023/10/08 01:03:26;;;;;;;6.50;2.38;;;20.90;77.10;;;;;;6231924;22;20046;-61
2023/10/08 01:05:53;;;;;;;5.63;2.33;;;20.90;77.10;;;;;;6280301;22;20022;-61
2023/10/08 01:08:47;;;;;;;5.63;2.72;;;20.90;77.00;;;;;;6252179;22;20446;-61
2023/10/08 01:11:31;;;;;;;5.55;1.90;;;20.90;77.00;;;;;;6258050;22;20411;-61
2023/10/08 01:13:58;;;;;;;4.60;2.15;;;20.90;76.90;;;;;;6278283;22;20023;-61
2023/10/08 01:16:27;;;;;;;4.78;2.40;;;20.90;77.00;;;;;;6279802;22;20015;-61
2023/10/08 01:18:54;;;;;;;4.40;2.00;;;20.90;77.00;;;;;;6280358;22;20021;-61
2023/10/08 01:21:31;;;;;;;3.90;1.90;;;20.90;77.00;;;;;;6306569;22;20026;-61
2023/10/08 01:24:00;;;;;;;4.18;2.10;;;20.90;76.90;;;;;;6279976;22;20015;-61
2023/10/08 01:26:25;;;;;;;;;;;20.90;76.90;;;;;;6279679;22;20027;-61
2023/10/08 01:28:52;;;;;;;4.63;1.98;;;20.90;76.80;;;;;;6279373;22;19921;-61
2023/10/08 01:31:18;;;;;;;5.68;2.38;;;20.90;77.00;;;;;;6307311;22;20023;-61
2023/10/08 01:33:49;;;;;;;5.45;2.00;;;20.90;76.90;;;;;;6280278;22;20026;-61
2023/10/08 01:36:15;;;;;;;4.82;2.03;;;20.90;76.90;;;;;;6306410;22;20019;-61
2023/10/08 01:38:41;;;;;;;5.85;2.13;;;20.90;76.80;;;;;;6307744;22;20377;-61
2023/10/08 01:41:18;;;;;;;4.32;1.70;;;20.90;76.90;;;;;;6307727;22;20019;-61
2023/10/08 01:43:47;;;;;;;4.03;1.70;;;20.90;76.80;;;;;;6307196;22;20417;-61
2023/10/08 01:46:15;;;;;;;3.15;1.40;;;20.90;76.80;;;;;;6279844;22;20022;-61
2023/10/08 01:48:44;;;;;;;5.97;2.00;;;20.90;76.80;;;;;;6279112;22;20110;-61
2023/10/08 01:51:11;;;;;;;3.65;1.70;;;20.80;76.80;;;;;;6279675;22;20477;-61
2023/10/08 01:53:40;;;;;;;5.20;1.98;;;20.80;76.80;;;;;;6279249;22;20019;-61
2023/10/08 01:56:05;;;;;;;6.18;1.63;;;20.90;76.80;;;;;;6306487;22;20019;-61
2023/10/08 01:58:33;;;;;;;3.78;1.77;;;20.90;76.80;;;;;;6307080;22;20050;-61
2023/10/08 02:00:59;;;;;;;3.97;1.40;;;20.90;76.70;;;;;;6279502;22;20367;-61
2023/10/08 02:03:25;;;;;;;4.18;1.90;;;20.90;76.60;;;;;;6278471;22;20443;-61
2023/10/08 02:05:53;;;;;;;3.60;1.48;;;20.80;76.60;;;;;;6278757;22;20022;-61
2023/10/08 02:08:19;;;;;;;;;;;20.80;76.70;;;;;;6280010;22;20045;-61
2023/10/08 02:10:47;;;;;;;4.40;1.55;;;20.80;76.50;;;;;;6278938;22;19914;-61
2023/10/08 02:13:13;;;;;;;3.17;1.20;;;20.80;76.70;;;;;;6306179;22;20037;-61
2023/10/08 02:15:49;;;;;;;3.42;1.58;;;20.80;76.70;;;;;;6279232;22;20019;-61
2023/10/08 02:18:15;;;;;;;3.50;1.40;;;20.80;76.60;;;;;;6278577;22;20088;-61
2023/10/08 02:20:41;;;;;;;3.58;1.63;;;20.80;76.60;;;;;;6279791;22;20343;-61
2023/10/08 02:23:07;;;;;;;2.50;1.35;;;20.80;76.70;;;;;;6279804;22;20027;-61
2023/10/08 02:25:34;;;;;;;3.17;1.40;;;20.80;76.60;;;;;;6278688;22;20015;-61
2023/10/08 02:28:02;;;;;;;3.50;1.42;;;20.80;76.60;;;;;;6307318;22;20461;-61
2023/10/08 02:30:28;;;;;;;2.58;1.23;;;20.80;76.60;;;;;;6279014;22;20030;-61
2023/10/08 02:32:54;;;;;;;3.47;1.50;;;20.80;76.60;;;;;;6277917;22;20023;-61
2023/10/08 02:35:19;;;;;;;3.50;1.30;;;20.80;76.60;;;;;;6306677;22;20065;-61
2023/10/08 02:37:45;;;;;;;5.10;1.55;;;20.80;76.60;;;;;;6306493;22;20330;-61
2023/10/08 02:40:19;;;;;;;2.50;1.13;;;20.80;76.50;;;;;;6279120;22;20041;-61
2023/10/08 02:42:47;;;;;;;3.28;1.00;;;20.80;77.10;;;;;;6306699;22;20016;-61
2023/10/08 02:45:13;;;;;;;;;;;20.80;76.50;;;;;;6305716;22;20069;-61
2023/10/08 02:47:45;;;;;;;2.55;1.20;;;20.80;76.40;;;;;;6307330;22;19919;-61
2023/10/08 02:50:12;;;;;;;2.67;1.10;;;20.80;76.50;;;;;;6279262;22;20047;-61
2023/10/08 02:52:37;;;;;;;1.98;1.10;;;20.80;76.50;;;;;;6306364;22;20023;-61
2023/10/08 02:55:04;;;;;;;3.58;1.40;;;20.80;76.60;;;;;;6279487;22;20027;-61
2023/10/08 02:57:31;;;;;;;2.30;1.00;;;20.80;76.50;;;;;;6306726;22;20011;-61
2023/10/08 02:59:57;;;;;;;2.65;1.20;;;20.80;76.60;;;;;;6278074;22;20015;-61
2023/10/08 03:02:23;;;;;;;1.80;0.85;;;20.70;76.50;;;;;;6306877;22;20019;-62
2023/10/08 03:04:51;;;;;;;2.97;1.08;;;20.80;76.60;;;;;;6307227;22;20030;-61
2023/10/08 03:07:23;;;;;;;2.42;0.90;;;20.80;76.50;;;;;;6305502;22;20090;-61
2023/10/08 03:09:50;;;;;;;2.58;1.17;;;20.70;76.40;;;;;;6279609;22;20045;-61
2023/10/08 03:12:19;;;;;;;2.13;1.00;;;20.70;76.30;;;;;;6278689;22;20347;-61
2023/10/08 03:17:29;;;;;;;2.05;1.25;;;20.70;76.30;;;;;;6279067;22;20098;-61
2023/10/08 03:20:01;;;;;;;2.17;1.00;;;20.80;76.30;;;;;;6308237;22;20057;-61
2023/10/08 03:22:33;;;;;;;4.85;1.20;;;20.70;76.20;;;;;;6308539;22;20028;-61
2023/10/08 03:25:16;;;;;;;1.65;0.90;;;20.70;76.20;;;;;;6281096;22;20379;-61
2023/10/08 03:27:42;;;;;;;2.50;1.00;;;20.70;76.20;;;;;;6280416;22;20045;-61
2023/10/08 03:30:14;;;;;;;2.80;0.82;;;20.70;76.20;;;;;;6280168;22;20019;-61
2023/10/08 03:32:42;;;;;;;2.80;0.90;;;20.70;76.30;;;;;;6309089;22;20016;-61
2023/10/08 03:35:12;;;;;;;1.85;0.70;;;20.70;76.20;;;;;;6307657;22;20015;-61
2023/10/08 03:37:41;;;;;;;2.20;0.82;;;20.70;76.20;;;;;;6281330;22;20060;-61
2023/10/08 03:40:24;;;;;;;1.40;0.80;;;20.70;76.20;;;;;;6281166;22;20030;-60
2023/10/08 03:42:49;;;;;;;2.35;0.82;;;20.70;76.20;;;;;;6284213;22;20374;-61
2023/10/08 03:45:22;;;;;;;1.95;0.88;;;20.70;76.20;;;;;;6308313;22;20019;-61
2023/10/08 03:48:02;;;;;;;2.15;0.88;;;20.70;76.20;;;;;;6280059;22;20034;-61
2023/10/08 03:50:40;;;;;;;2.55;0.90;;;20.70;76.10;;;;;;6281090;22;20027;-61
2023/10/08 03:53:11;;;;;;;1.67;0.50;;;20.70;76.10;;;;;;6308938;22;20026;-61
2023/10/08 03:55:40;;;;;;;1.52;0.63;;;20.70;76.10;;;;;;6280315;22;20023;-61
2023/10/08 03:58:10;;;;;;;1.38;0.90;;;20.70;76.20;;;;;;6280749;22;20069;-61
2023/10/08 04:00:42;;;;;;;1.80;0.70;;;20.70;76.20;;;;;;6274860;22;20046;-61
2023/10/08 04:03:11;;;;;;;1.15;0.70;;;20.70;76.20;;;;;;6276397;22;20008;-61
2023/10/08 04:11:29;;;;;;;1.58;0.85;;;20.70;76.10;;;;;;6244379;22;20024;-61
2023/10/08 04:13:54;;;;;;;1.38;0.63;;;20.70;76.10;;;;;;6275307;22;20344;-61
2023/10/08 04:16:20;;;;;;;2.45;0.77;;;20.70;76.10;;;;;;6274413;22;20118;-61
2023/10/08 04:18:50;;;;;;;1.77;0.60;;;20.70;76.10;;;;;;6275453;22;20023;-61
2023/10/08 04:21:20;;;;;;;1.58;0.70;;;20.70;76.10;;;;;;6275405;22;20077;-61
2023/10/08 04:23:46;;;;;;;0.82;0.60;;;20.70;76.00;;;;;;6276117;22;20019;-61
2023/10/08 04:26:12;;;;;;;1.92;0.57;;;20.70;76.10;;;;;;6277276;22;20018;-61
2023/10/08 04:28:38;;;;;;;1.88;0.70;;;20.60;76.60;;;;;;6276385;22;20026;-61
2023/10/08 04:31:14;;;;;;;1.63;0.70;;;20.60;76.00;;;;;;6276167;22;20024;-61
2023/10/08 04:33:41;;;;;;;1.10;0.50;;;20.70;76.00;;;;;;6277588;22;20050;-61
2023/10/08 04:36:07;;;;;;;1.88;0.57;;;20.70;76.00;;;;;;6275609;22;20019;-61
2023/10/08 04:38:39;;;;;;;1.95;0.70;;;20.60;76.00;;;;;;6274053;22;20053;-61
2023/10/08 04:41:09;;;;;;;1.92;0.60;;;20.60;75.90;;;;;;6277408;22;20023;-61
2023/10/08 04:43:37;;;;;;;1.77;0.60;;;20.70;76.00;;;;;;6277213;22;20023;-61
2023/10/08 04:46:19;;;;;;;2.05;0.80;;;20.70;76.10;;;;;;6276265;22;20015;-61
2023/10/08 04:48:45;;;;;;;3.38;0.43;;;20.60;76.00;;;;;;6277551;22;20065;-62
2023/10/08 04:51:12;;;;;;;1.10;0.50;;;20.60;75.90;;;;;;6275038;22;20061;-61
2023/10/08 04:53:40;;;;;;;1.27;0.70;;;20.60;76.10;;;;;;6275328;22;20011;-61
2023/10/08 04:56:17;;;;;;;1.38;0.60;;;20.60;76.00;;;;;;6275579;22;20114;-61
2023/10/08 04:58:46;;;;;;;2.15;0.68;;;20.60;76.00;;;;;;6274386;22;20016;-66
2023/10/08 05:01:38;;;;;;;7.13;0.75;;;20.60;76.60;;;;;;6273618;22;20020;-60
2023/10/08 05:12:08;;;;;;;5.40;0.68;;;20.70;76.20;;;;;;6275232;22;20047;-63
2023/10/08 05:17:03;;;;;;;3.83;0.70;;;20.70;76.30;;;;;;6272765;22;20024;-62
2023/10/08 05:22:44;;;;;;;3.17;0.73;;;20.70;76.40;;;;;;6276247;22;20028;-61
2023/10/08 05:30:25;;;;;;;9.38;1.10;;;20.70;76.60;;;;;;6275615;22;20051;-62
2023/10/08 05:48:50;;;;;;;8.90;0.90;;;20.80;77.50;;;;;;6274003;22;20347;-63
2023/10/08 05:51:44;;;;;;;7.97;1.13;;;20.90;77.70;;;;;;6274638;22;20404;-61
2023/10/08 05:54:11;;;;;;;5.63;1.05;;;20.90;77.80;;;;;;6276262;22;20106;-62
2023/10/08 05:57:04;;;;;;;6.40;1.00;;;20.90;77.80;;;;;;6275576;22;20023;-61
2023/10/08 05:59:27;;;;;;;6.97;0.85;;;21.00;78.00;;;;;;6252877;22;20026;-61
2023/10/08 06:02:05;;;;;;;8.57;1.00;;;21.00;77.90;;;;;;6273027;22;20051;-62
2023/10/08 06:04:42;;;;;;;7.95;1.00;;;21.00;77.90;;;;;;6274533;22;20091;-61
2023/10/08 06:07:20;;;;;;;8.32;1.60;;;21.00;77.90;;;;;;6274190;22;20098;-62
2023/10/08 06:10:02;;;;;;;6.15;1.25;;;21.00;77.90;;;;;;6273529;22;20015;-62
2023/10/08 06:12:39;;;;;;;9.10;2.05;;;21.00;77.90;;;;;;6274862;22;20069;-64
2023/10/08 06:15:08;;;;;;;6.85;1.45;;;21.00;77.80;;;;;;6274040;22;20012;-62
2023/10/08 06:17:55;;;;;;;8.93;1.30;;;21.00;77.80;;;;;;6273548;22;20015;-63
2023/10/08 06:20:25;;;;;;;6.35;1.30;;;21.00;77.70;;;;;;6275670;22;20028;-66
2023/10/08 06:22:52;;;;;;;8.10;1.13;;;20.90;77.60;;;;;;6273981;22;20026;-61
2023/10/08 06:25:23;;;;;;;12.20;1.58;;;20.90;77.60;;;;;;6273922;22;20335;-61
2023/10/08 06:27:53;;;;;;;13.23;1.85;;;20.90;77.50;;;;;;6274436;22;20047;-62
2023/10/08 06:30:19;;;;;;;14.52;1.77;;;20.90;77.60;;;;;;6273313;22;20047;-62
2023/10/08 06:32:45;;;;;;;11.35;1.77;;;20.90;77.60;;;;;;6274338;22;20024;-62
2023/10/08 06:35:17;;;;;;;12.25;1.95;;;20.90;77.60;;;;;;6273730;22;20427;-62
2023/10/08 06:37:45;;;;;;;13.85;1.60;;;20.90;77.70;;;;;;6273725;22;20019;-62
2023/10/08 06:40:40;;;;;;;11.95;1.52;;;20.90;77.70;;;;;;6273478;22;20012;-61
2023/10/08 06:42:59;;;;;;;14.27;1.45;;;20.90;77.60;;;;;;6274374;22;20033;-62
2023/10/08 06:45:27;;;;;;;18.95;1.55;;;20.90;77.60;;;;;;6274800;22;20015;-60
2023/10/08 06:47:53;;;;;;;12.57;1.58;;;20.90;77.70;;;;;;6276140;22;20085;-63
2023/10/08 06:50:21;;;;;;;13.20;1.70;;;20.90;77.80;;;;;;6275986;22;20427;-61
2023/10/08 06:52:49;;;;;;;6.82;1.23;;;21.00;78.00;;;;;;6275927;22;20012;-61
2023/10/08 06:55:17;;;;;;;23.33;2.40;;;21.00;78.00;;;;;;6277497;22;20020;-61
2023/10/08 06:57:43;;;;;;;12.07;1.67;;;21.00;78.00;;;;;;6276529;22;20472;-61
2023/10/08 07:00:33;;;;;;;15.90;1.63;;;21.00;78.10;;;;;;6282680;22;20427;-61
2023/10/08 07:02:55;;;;;;;11.48;1.42;;;21.00;78.30;;;;;;6307759;22;20019;-60
2023/10/08 07:05:22;;;;;;;13.23;1.48;;;20.90;78.40;;;;;;6307790;22;20023;-60
2023/10/08 07:07:47;;;;;;;10.40;1.45;;;21.00;78.50;;;;;;6308813;22;20023;-61
2023/10/08 07:10:13;;;;;;;9.40;1.40;;;21.00;78.50;;;;;;6280839;22;20018;-60
2023/10/08 07:12:39;;;;;;;14.40;1.65;;;21.00;78.50;;;;;;6308144;22;20094;-62
2023/10/08 07:15:11;;;;;;;10.05;1.65;;;21.00;78.60;;;;;;6308788;22;20019;-61
2023/10/08 07:17:40;;;;;;;14.23;1.73;;;21.00;78.60;;;;;;6309134;22;20041;-62
2023/10/08 07:20:13;;;;;;;15.15;2.13;;;21.00;78.60;;;;;;6280010;22;20081;-60
2023/10/08 07:22:43;;;;;;;18.90;1.75;;;21.00;78.60;;;;;;6308908;22;20023;-59
2023/10/08 07:25:09;;;;;;;12.95;1.88;;;21.00;78.60;;;;;;6280802;22;20082;-59
2023/10/08 07:27:37;;;;;;;15.65;1.85;;;21.00;78.70;;;;;;6280440;22;20053;-59
2023/10/08 07:30:10;;;;;;;10.57;1.95;;;21.00;78.70;;;;;;6308212;22;20026;-60
2023/10/08 07:32:39;;;;;;;11.02;1.60;;;21.00;78.80;;;;;;6281122;22;20015;-62
2023/10/08 07:38:02;;;;;;;12.88;2.13;;;21.10;78.90;;;;;;6261617;22;20027;-60
2023/10/08 07:40:30;;;;;;;13.60;2.53;;;21.10;78.90;;;;;;6306930;22;20023;-62
2023/10/08 07:42:56;;;;;;;13.50;1.50;;;21.10;79.00;;;;;;6281108;22;20023;-59
2023/10/08 07:45:21;;;;;;;11.18;1.77;;;21.10;78.90;;;;;;6308418;22;20105;-60
2023/10/08 07:47:47;;;;;;;12.80;1.77;;;21.10;78.90;;;;;;6307976;22;20019;-60
2023/10/08 07:50:15;;;;;;;11.93;1.60;;;21.20;79.00;;;;;;6308248;22;20450;-60
2023/10/08 07:52:44;;;;;;;10.50;2.10;;;21.10;79.00;;;;;;6308335;22;20088;-62
2023/10/08 07:55:10;;;;;;;22.77;1.92;;;21.20;79.10;;;;;;6279052;22;20019;-58
2023/10/08 07:57:35;;;;;;;18.20;2.20;;;21.20;79.10;;;;;;6307643;22;20023;-61
2023/10/08 08:00:18;;;;;;;15.48;1.80;;;21.20;79.20;;;;;;6308073;22;20069;-59
2023/10/08 08:02:44;;;;;;;22.08;2.38;;;21.20;79.10;;;;;;6308029;22;20023;-61
2023/10/08 08:05:10;;;;;;;16.90;2.03;;;21.20;79.10;;;;;;6280737;22;20007;-60
2023/10/08 08:07:37;;;;;;;15.77;1.45;;;21.20;79.10;;;;;;6280765;22;20091;-60
2023/10/08 08:10:07;;;;;;;15.77;1.92;;;21.20;79.00;;;;;;6307369;22;20390;-60
2023/10/08 08:12:33;;;;;;;14.90;2.00;;;21.20;78.90;;;;;;6308606;22;20047;-61
2023/10/08 08:14:59;;;;;;;15.07;2.80;;;21.20;78.80;;;;;;6308103;22;20095;-61
2023/10/08 08:17:24;;;;;;;13.77;1.98;;;21.20;78.60;;;;;;6279583;22;20043;-60
2023/10/08 08:19:51;;;;;;;13.48;2.30;;;21.20;78.60;;;;;;6308677;22;20023;-60
2023/10/08 08:22:21;;;;;;;16.23;1.83;;;21.10;78.50;;;;;;6278584;22;20221;-59
2023/10/08 08:25:02;;;;;;;19.67;2.67;;;21.10;78.20;;;;;;6280562;22;20019;-59
2023/10/08 08:27:34;;;;;;;16.73;1.95;;;21.10;78.00;;;;;;6306937;22;20387;-59
2023/10/08 08:30:10;;;;;;;15.85;2.42;;;21.10;78.10;;;;;;6306133;22;20068;-60
2023/10/08 08:32:43;;;;;;;15.15;2.38;;;21.10;78.00;;;;;;6307671;22;20034;-61
2023/10/08 08:35:09;;;;;;;14.90;1.85;;;21.10;77.90;;;;;;6307139;22;20019;-60
2023/10/08 08:37:35;;;;;;;15.52;1.90;;;21.00;77.90;;;;;;6304859;22;20023;-60
2023/10/08 08:40:17;;;;;;;15.45;1.77;;;21.00;77.70;;;;;;6305954;22;20022;-59
2023/10/08 08:42:46;;;;;;;13.18;1.60;;;21.00;77.60;;;;;;6278089;22;20382;-60
2023/10/08 08:45:13;;;;;;;14.48;1.70;;;21.00;77.50;;;;;;6300759;22;20022;-60
2023/10/08 08:47:42;;;;;;;20.50;1.63;;;21.00;77.60;;;;;;6278502;22;20023;-60
2023/10/08 08:50:08;;;;;;;8.57;1.50;;;21.00;77.60;;;;;;6279400;22;20027;-60
2023/10/08 08:52:40;;;;;;;7.40;1.42;;;21.00;77.70;;;;;;6279327;22;20057;-60
2023/10/08 08:55:16;;;;;;;14.80;1.55;;;21.00;77.70;;;;;;6307722;22;20011;-59
2023/10/08 08:57:43;;;;;;;10.60;1.40;;;21.00;77.70;;;;;;6278597;22;20019;-59
2023/10/08 09:00:12;;;;;;;11.50;1.65;;;21.00;77.80;;;;;;6279424;22;20064;-60
2023/10/08 09:02:38;;;;;;;14.85;1.63;;;21.00;77.80;;;;;;6281364;22;20059;-60
2023/10/08 09:05:13;;;;;;;14.70;1.55;;;21.10;77.90;;;;;;6306917;22;20060;-59
2023/10/08 09:07:58;;;;;;;15.77;1.60;;;21.10;77.90;;;;;;6307216;22;20453;-59
2023/10/08 09:10:27;;;;;;;8.60;1.02;;;21.10;77.90;;;;;;6278758;22;20095;-59
2023/10/08 09:12:53;;;;;;;9.63;1.45;;;21.00;77.90;;;;;;6279122;22;20019;-60
2023/10/08 09:15:20;;;;;;;7.35;1.23;;;21.10;78.00;;;;;;6305257;22;20102;-60
2023/10/08 09:17:46;;;;;;;9.40;1.38;;;21.10;78.00;;;;;;6279622;22;20051;-61
2023/10/08 09:20:12;;;;;;;10.88;2.45;;;21.10;78.00;;;;;;6278286;22;20019;-60
2023/10/08 09:22:37;;;;;;;7.20;1.02;;;21.10;77.90;;;;;;6307046;22;20034;-61
2023/10/08 09:25:07;;;;;;;9.75;1.30;;;21.10;77.90;;;;;;6279245;22;20110;-61
2023/10/08 09:27:32;;;;;;;7.20;1.05;;;21.20;78.00;;;;;;6278999;22;20019;-61
2023/10/08 09:29:59;;;;;;;6.72;1.15;;;21.20;78.00;;;;;;6279292;22;20029;-61
2023/10/08 09:32:24;;;;;;;8.05;1.30;;;21.20;77.90;;;;;;6279667;22;20060;-61
2023/10/08 09:34:53;;;;;;;8.23;1.02;;;21.30;77.90;;;;;;6306202;22;20080;-62
2023/10/08 09:37:22;;;;;;;6.72;1.00;;;21.20;77.90;;;;;;6280682;22;20019;-60
2023/10/08 09:39:48;;;;;;;7.60;1.60;;;21.20;77.90;;;;;;6278545;22;20080;-60
2023/10/08 09:42:14;;;;;;;9.50;1.60;;;21.30;77.90;;;;;;6254311;22;20042;-61
2023/10/08 09:44:40;;;;;;;7.82;1.00;;;21.20;77.80;;;;;;6254751;22;20023;-60
2023/10/08 09:47:08;;;;;;;6.75;1.20;;;21.30;77.80;;;;;;6253126;22;20090;-61
2023/10/08 09:49:54;;;;;;;;;;;21.30;77.80;;;;;;6280612;22;20015;-61
2023/10/08 09:52:21;;;;;;;7.57;1.17;;;21.30;77.70;;;;;;6279643;22;19938;-61
2023/10/08 09:54:53;;;;;;;7.57;1.10;;;21.20;77.70;;;;;;6253800;22;20064;-58
2023/10/08 09:57:20;;;;;;;8.20;1.65;;;21.20;77.70;;;;;;6254025;22;20258;-59
2023/10/08 09:59:46;;;;;;;11.85;1.30;;;21.30;77.60;;;;;;6278739;22;20019;-59
2023/10/08 10:02:12;;;;;;;11.75;2.15;;;21.30;77.70;;;;;;6252459;22;20347;-60
2023/10/08 10:04:44;;;;;;;7.90;1.10;;;21.30;77.80;;;;;;6253334;22;20015;-60
2023/10/08 10:07:12;;;;;;;7.68;1.55;;;21.30;78.40;;;;;;6278877;22;20019;-60
2023/10/08 10:09:38;;;;;;;;;;;21.40;77.80;;;;;;6278017;22;20050;-60
2023/10/08 10:12:09;;;;;;;6.78;1.00;;;21.30;77.70;;;;;;6278128;22;19922;-60
2023/10/08 10:14:55;;;;;;;6.53;1.00;;;21.40;77.70;;;;;;6255676;22;20465;-61
2023/10/08 10:17:22;;;;;;;7.57;1.05;;;21.40;77.70;;;;;;6277797;22;20015;-61
2023/10/08 10:19:54;;;;;;;8.65;1.30;;;21.30;77.60;;;;;;6306634;22;20025;-61
2023/10/08 10:22:30;;;;;;;7.50;1.10;;;21.40;77.60;;;;;;6275938;22;20015;-60
2023/10/08 10:24:57;;;;;;;6.55;1.20;;;21.40;77.50;;;;;;6305674;22;20023;-61
2023/10/08 10:27:22;;;;;;;7.93;1.05;;;21.40;77.50;;;;;;6278306;22;20332;-62
2023/10/08 10:29:48;;;;;;;7.13;1.10;;;21.40;77.50;;;;;;6251877;22;20072;-65
2023/10/08 10:32:18;;;;;;;6.28;1.10;;;21.40;77.40;;;;;;6277952;22;20020;-61
2023/10/08 10:34:47;;;;;;;6.30;0.93;;;21.40;77.40;;;;;;6278590;22;20397;-61
2023/10/08 10:37:22;;;;;;;;;;;21.40;77.20;;;;;;6306062;22;20026;-60
2023/10/08 10:39:54;;;;;;;8.30;1.13;;;21.40;77.10;;;;;;6279306;22;19922;-60
2023/10/08 10:42:20;;;;;;;5.07;1.25;;;21.40;77.20;;;;;;6278687;22;20023;-61
2023/10/08 10:44:49;;;;;;;6.38;1.05;;;21.40;77.20;;;;;;6278517;22;20011;-61
2023/10/08 10:49:53;;;;;;;6.45;1.17;;;21.40;77.10;;;;;;6279529;22;20042;-60
2023/10/08 10:52:51;;;;;;;;;;;21.40;77.10;;;;;;6278632;22;20050;-60
2023/10/08 10:57:55;;;;;;;6.78;1.40;;;21.40;77.00;;;;;;6306128;22;20019;-60
2023/10/08 11:01:21;;;;;;;7.50;1.55;;;21.40;76.80;;;;;;6278078;22;20052;-60
2023/10/08 11:03:16;;;;;;;5.50;1.58;;;21.40;76.80;;;;;;6292512;22;20091;-60
2023/10/08 11:05:48;;;;;;;5.85;1.50;;;21.30;76.70;;;;;;6306070;22;20087;-60
2023/10/08 11:08:14;;;;;;;5.20;1.30;;;21.40;76.70;;;;;;6306485;22;20015;-60
2023/10/08 11:10:46;;;;;;;5.13;1.48;;;21.40;76.70;;;;;;6254078;22;20022;-60
2023/10/08 11:13:15;;;;;;;9.00;1.63;;;21.40;76.70;;;;;;6253472;22;20026;-60
2023/10/08 11:15:41;;;;;;;5.45;1.20;;;21.40;76.70;;;;;;6306789;22;20026;-60
2023/10/08 11:18:10;;;;;;;8.02;1.52;;;21.40;76.80;;;;;;6305914;22;20742;-60
2023/10/08 11:20:39;;;;;;;9.52;1.88;;;21.40;76.80;;;;;;6306907;22;20019;-60
2023/10/08 11:23:17;;;;;;;9.82;1.52;;;21.40;76.80;;;;;;6306758;22;20026;-60
2023/10/08 11:25:59;;;;;;;;;;;21.40;76.80;;;;;;6306111;22;20015;-60
2023/10/08 11:28:27;;;;;;;8.63;1.45;;;21.30;76.80;;;;;;6306170;22;20323;-60
2023/10/08 11:30:53;;;;;;;6.00;1.08;;;21.30;76.80;;;;;;6306317;22;20465;-60
2023/10/08 11:33:19;;;;;;;4.47;1.42;;;21.40;76.80;;;;;;6278361;22;20086;-60
2023/10/08 11:36:06;;;;;;;5.05;1.30;;;21.40;76.80;;;;;;6306939;22;20047;-60
2023/10/08 11:38:41;;;;;;;6.68;1.20;;;21.40;76.80;;;;;;6279071;22;20023;-60
2023/10/08 11:41:20;;;;;;;5.65;1.25;;;21.40;76.80;;;;;;6307414;22;20019;-60
2023/10/08 11:43:53;;;;;;;4.75;1.05;;;21.40;76.80;;;;;;6308324;22;20382;-60
2023/10/08 11:46:20;;;;;;;3.63;0.95;;;21.40;76.80;;;;;;6307155;22;20072;-60
2023/10/08 11:48:46;;;;;;;5.40;1.10;;;21.40;76.80;;;;;;6308669;22;20027;-60
2023/10/08 11:51:16;;;;;;;6.13;1.13;;;21.40;76.70;;;;;;6280254;22;20019;-60
2023/10/08 11:53:44;;;;;;;3.35;0.80;;;21.50;76.70;;;;;;6307874;22;20023;-60
2023/10/08 11:56:13;;;;;;;6.63;1.30;;;21.50;76.70;;;;;;6308044;22;20042;-60
2023/10/08 11:58:44;;;;;;;5.18;1.13;;;21.50;76.70;;;;;;6308448;22;20450;-60
2023/10/08 12:01:15;;;;;;;7.03;1.23;;;21.50;76.60;;;;;;6274333;22;20451;-60
2023/10/08 12:03:49;;;;;;;4.30;1.00;;;21.50;76.60;;;;;;6277328;22;20024;-60
2023/10/08 12:06:18;;;;;;;5.55;0.90;;;21.50;76.60;;;;;;6273663;22;20015;-60
2023/10/08 12:08:46;;;;;;;5.85;1.40;;;21.50;76.60;;;;;;6275991;22;20047;-60
2023/10/08 12:11:12;;;;;;;4.63;1.15;;;21.50;76.60;;;;;;6276355;22;20014;-60
2023/10/08 12:13:43;;;;;;;6.35;1.05;;;21.60;76.60;;;;;;6276913;22;20034;-61
2023/10/08 12:16:18;;;;;;;2.92;0.85;;;21.50;76.40;;;;;;6273219;22;20094;-60
2023/10/08 12:18:48;;;;;;;3.10;0.95;;;21.60;76.20;;;;;;6277255;22;20016;-61
2023/10/08 12:21:15;;;;;;;6.00;1.17;;;21.60;76.00;;;;;;6276165;22;20023;-60
2023/10/08 12:23:43;;;;;;;7.95;1.63;;;21.60;75.80;;;;;;6275767;22;20321;-67
2023/10/08 12:26:08;;;;;;;10.30;1.85;;;21.60;75.80;;;;;;6249007;22;20034;-70
2023/10/08 12:28:34;;;;;;;7.68;1.55;;;21.60;75.80;;;;;;6273566;22;20023;-70
2023/10/08 12:31:00;;;;;;;9.80;1.52;;;21.70;75.70;;;;;;6276419;22;20436;-69
2023/10/08 12:33:26;;;;;;;8.50;1.83;;;21.70;75.80;;;;;;6274593;22;20034;-65
2023/10/08 12:36:02;;;;;;;8.68;1.52;;;21.70;75.80;;;;;;6273792;22;20023;-68
2023/10/08 12:38:27;;;;;;;4.72;1.15;;;21.70;75.80;;;;;;6274525;22;20059;-67
2023/10/08 12:40:54;;;;;;;4.35;1.58;;;21.70;75.70;;;;;;6274418;22;20443;-66
2023/10/08 12:43:26;;;;;;;5.45;1.10;;;21.70;75.70;;;;;;6275447;22;20012;-66
2023/10/08 12:45:52;;;;;;;7.75;1.38;;;21.70;75.70;;;;;;6274910;22;20054;-66
2023/10/08 12:48:22;;;;;;;9.98;1.35;;;21.80;75.70;;;;;;6274738;22;20443;-66
2023/10/08 12:50:57;;;;;;;7.50;1.13;;;21.70;75.70;;;;;;6273185;22;20015;-66
2023/10/08 12:53:26;;;;;;;7.43;1.00;;;21.80;75.70;;;;;;6275874;22;20435;-66
2023/10/08 12:55:53;;;;;;;8.07;1.33;;;21.70;75.60;;;;;;6273715;22;20016;-66
2023/10/08 12:58:25;;;;;;;7.68;1.55;;;21.80;75.60;;;;;;6272332;22;20093;-68
2023/10/08 13:00:58;;;;;;;5.68;1.45;;;21.70;75.50;;;;;;6250519;22;20022;-67
2023/10/08 13:03:25;;;;;;;5.05;1.27;;;21.80;75.50;;;;;;6275881;22;20016;-70
2023/10/08 13:05:54;;;;;;;6.72;1.20;;;21.80;75.50;;;;;;6274763;22;20020;-69
2023/10/08 13:08:20;;;;;;;6.72;1.10;;;21.80;75.50;;;;;;6274260;22;20019;-69
2023/10/08 13:10:47;;;;;;;6.82;1.10;;;21.80;75.50;;;;;;6273455;22;20020;-69
2023/10/08 13:13:12;;;;;;;8.30;1.67;;;21.80;75.50;;;;;;6274316;22;20023;-68
2023/10/08 13:15:41;;;;;;;4.45;1.10;;;21.90;75.60;;;;;;6275851;22;20024;-69
2023/10/08 13:18:07;;;;;;;5.75;1.30;;;21.90;75.60;;;;;;6275104;22;20030;-67
2023/10/08 13:20:34;;;;;;;5.35;0.90;;;21.90;75.60;;;;;;6275498;22;20015;-68
2023/10/08 13:23:04;;;;;;;4.00;1.00;;;21.90;75.50;;;;;;6274375;22;20023;-67
2023/10/08 13:25:33;;;;;;;4.10;1.30;;;21.90;75.50;;;;;;6274001;22;20019;-67
2023/10/08 13:28:00;;;;;;;7.72;1.35;;;22.00;75.50;;;;;;6274390;22;20020;-67
2023/10/08 13:30:26;;;;;;;4.43;1.00;;;22.00;75.50;;;;;;6274113;22;20102;-68
2023/10/08 13:32:53;;;;;;;5.57;1.30;;;22.00;75.40;;;;;;6272954;22;20015;-68
2023/10/08 13:35:19;;;;;;;7.03;1.33;;;22.10;75.40;;;;;;6275259;22;20028;-67
2023/10/08 13:37:47;;;;;;;7.32;1.02;;;22.10;75.30;;;;;;6274173;22;20014;-68
2023/10/08 13:40:15;;;;;;;5.85;1.08;;;22.20;75.20;;;;;;6272963;22;20047;-68
2023/10/08 13:42:44;;;;;;;8.30;1.20;;;22.20;75.20;;;;;;6274484;22;20011;-69
2023/10/08 13:45:16;;;;;;;3.60;0.90;;;22.20;75.10;;;;;;6273782;22;20035;-68
2023/10/08 13:47:42;;;;;;;3.78;1.00;;;22.20;75.00;;;;;;6274076;22;20015;-68
2023/10/08 13:50:10;;;;;;;5.20;1.15;;;22.30;75.10;;;;;;6274036;22;20470;-69
2023/10/08 13:52:38;;;;;;;4.53;0.95;;;22.20;75.00;;;;;;6274320;22;20030;-69